createdAt,value
2023-06-10T06:48:27.866Z,5.67
2023-06-10T06:50:59.485Z,6.67
2023-06-10T06:53:31.744Z,6.73
2023-06-10T06:56:04.221Z,6.17
2023-06-10T06:58:33.427Z,5.60
2023-06-10T07:01:27.947Z,5.57
2023-06-10T07:03:58.669Z,5.77
2023-06-10T07:06:28.163Z,5.97
2023-06-10T07:08:57.555Z,5.13
2023-06-10T07:11:27.301Z,4.93
2023-06-10T07:13:57.622Z,5.90
2023-06-10T07:16:26.993Z,6.50
2023-06-10T07:18:58.781Z,5.80
2023-06-10T07:21:29.899Z,4.63
2023-06-10T07:23:59.373Z,6.10
2023-06-10T07:26:28.898Z,5.50
2023-06-10T07:28:57.999Z,5.13
2023-06-10T07:31:27.558Z,5.10
2023-06-10T07:33:58.702Z,4.70
2023-06-10T07:36:29.739Z,5.37
2023-06-10T07:38:59.027Z,5.77
2023-06-10T07:41:28.622Z,0.70
2023-06-10T07:43:57.882Z,5.10
2023-06-10T07:46:28.508Z,1.07
2023-06-10T07:48:59.816Z,0.60
2023-06-10T07:51:28.918Z,3.97
2023-06-10T07:53:58.043Z,5.40
2023-06-10T07:56:27.770Z,5.50
2023-06-10T07:58:56.866Z,5.90
2023-06-10T08:01:26.109Z,6.07
2023-06-10T08:03:55.791Z,5.87
2023-06-10T08:06:26.397Z,5.80
2023-06-10T08:08:55.980Z,6.27
2023-06-10T08:11:26.265Z,6.07
2023-06-10T08:13:55.687Z,6.83
2023-06-10T08:16:25.410Z,6.50
2023-06-10T08:18:55.954Z,6.13
2023-06-10T08:21:27.051Z,6.63
2023-06-10T08:23:56.789Z,5.60
2023-06-10T08:26:26.720Z,4.80
2023-06-10T08:28:57.085Z,4.70
2023-06-10T08:31:26.815Z,5.23
2023-06-10T08:33:55.892Z,5.93
2023-06-10T08:36:25.144Z,5.17
2023-06-10T08:38:55.812Z,5.60
2023-06-10T08:41:28.167Z,5.37
2023-06-10T08:44:02.690Z,5.57
2023-06-10T08:46:32.839Z,4.50
2023-06-10T08:49:06.073Z,3.97
2023-06-10T08:51:36.053Z,4.10
2023-06-10T08:54:09.337Z,5.30
2023-06-10T08:56:40.316Z,4.47
2023-06-10T08:59:09.901Z,5.20
2023-06-10T09:01:39.357Z,5.37
2023-06-10T09:04:09.443Z,4.83
2023-06-10T09:06:39.235Z,4.33
2023-06-10T09:09:10.117Z,5.20
2023-06-10T09:11:39.855Z,4.67
2023-06-10T09:14:09.004Z,5.70
2023-06-10T09:16:39.339Z,5.83
2023-06-10T09:19:09.745Z,4.83
2023-06-10T09:21:39.430Z,4.60
2023-06-10T09:24:11.319Z,4.27
2023-06-10T09:26:40.789Z,4.63
2023-06-10T09:29:13.069Z,4.60
2023-06-10T09:31:43.267Z,4.40
2023-06-10T09:34:12.701Z,3.97
2023-06-10T09:36:42.491Z,4.30
2023-06-10T09:39:19.107Z,3.90
2023-06-10T09:41:49.459Z,5.37
2023-06-10T09:44:20.224Z,3.53
2023-06-10T09:46:50.557Z,3.23
2023-06-10T09:49:19.940Z,3.67
2023-06-10T09:51:53.585Z,3.70
2023-06-10T09:54:24.729Z,3.37
2023-06-10T09:56:55.202Z,3.83
2023-06-10T09:59:33.250Z,4.13
2023-06-10T10:02:03.585Z,4.10
2023-06-10T10:04:32.891Z,3.33
2023-06-10T10:07:02.174Z,4.00
2023-06-10T10:09:32.884Z,3.70
2023-06-10T10:12:03.523Z,5.53
2023-06-10T10:14:37.249Z,4.00
2023-06-10T10:17:07.668Z,4.53
2023-06-10T10:19:40.309Z,4.10
2023-06-10T10:22:11.329Z,5.80
2023-06-10T10:24:46.183Z,6.33
2023-06-10T10:27:19.302Z,4.30
2023-06-10T10:29:50.644Z,5.77
2023-06-10T10:32:21.183Z,6.17
2023-06-10T10:34:53.510Z,5.10
2023-06-10T10:37:23.441Z,6.23
2023-06-10T10:39:54.285Z,7.03
2023-06-10T10:42:23.855Z,5.93
2023-06-10T10:44:53.836Z,6.90
2023-06-10T10:47:24.652Z,6.20
2023-06-10T10:49:55.850Z,6.57
2023-06-10T10:52:25.066Z,5.90
2023-06-10T10:54:56.616Z,6.10
2023-06-10T10:57:26.889Z,7.43
2023-06-10T10:59:59.129Z,9.57
2023-06-10T11:02:44.695Z,8.17
2023-06-10T11:05:15.042Z,7.70
2023-06-10T11:07:54.793Z,5.40
2023-06-10T11:10:31.904Z,7.77
2023-06-10T11:13:01.715Z,8.20
2023-06-10T11:15:31.722Z,9.10
2023-06-10T11:18:17.398Z,8.73
2023-06-10T11:21:02.562Z,8.97
2023-06-10T11:23:43.674Z,7.97
2023-06-10T11:26:18.100Z,7.77
2023-06-10T11:29:02.376Z,8.80
2023-06-10T11:31:32.685Z,9.47
2023-06-10T11:34:02.903Z,9.50
2023-06-10T11:36:32.521Z,9.43
2023-06-10T11:39:02.549Z,9.40
2023-06-10T11:41:33.930Z,11.80
2023-06-10T11:44:04.678Z,8.83
2023-06-10T11:46:33.999Z,9.10
2023-06-10T11:49:03.669Z,8.93
2023-06-10T11:51:37.071Z,9.20
2023-06-10T11:54:06.981Z,10.50
2023-06-10T11:56:38.123Z,8.00
2023-06-10T11:59:09.003Z,8.10
2023-06-10T12:01:41.443Z,7.20
2023-06-10T12:04:12.812Z,8.17
2023-06-10T12:06:43.111Z,9.40
2023-06-10T12:09:25.252Z,9.07
2023-06-10T12:11:58.869Z,7.83
2023-06-10T12:14:46.251Z,9.00
2023-06-10T12:17:15.880Z,8.03
2023-06-10T12:19:45.851Z,8.70
2023-06-10T12:22:15.308Z,8.03
2023-06-10T12:24:48.392Z,7.90
2023-06-10T12:27:21.727Z,10.30
2023-06-10T12:29:56.415Z,9.27
2023-06-10T12:32:28.439Z,10.40
2023-06-10T12:35:06.489Z,10.20
2023-06-10T12:37:36.916Z,8.70
2023-06-10T12:40:09.578Z,8.90
2023-06-10T12:42:40.717Z,8.67
2023-06-10T12:45:12.046Z,7.43
2023-06-10T12:47:41.750Z,8.27
2023-06-10T12:50:13.482Z,8.43
